sensor_id;sensor_type;location;lat;lon;timestamp;P1;durP1;ratioP1;P2;durP2;ratioP2
5904;SDS011;2978;42.012;24.880;2023-03-04T00:02:03;22.70;;;15.27;;
5904;SDS011;2978;42.012;24.880;2023-03-04T00:04:29;26.97;;;14.37;;
5904;SDS011;2978;42.012;24.880;2023-03-04T00:06:54;21.90;;;15.10;;
5904;SDS011;2978;42.012;24.880;2023-03-04T00:09:20;26.10;;;15.33;;
5904;SDS011;2978;42.012;24.880;2023-03-04T00:11:45;18.50;;;14.13;;
5904;SDS011;2978;42.012;24.880;2023-03-04T00:14:11;22.97;;;15.20;;
5904;SDS011;2978;42.012;24.880;2023-03-04T00:16:36;20.40;;;16.30;;
5904;SDS011;2978;42.012;24.880;2023-03-04T00:19:02;21.20;;;16.47;;
5904;SDS011;2978;42.012;24.880;2023-03-04T00:21:28;28.63;;;16.30;;
5904;SDS011;2978;42.012;24.880;2023-03-04T00:23:53;21.27;;;16.23;;
5904;SDS011;2978;42.012;24.880;2023-03-04T00:26:19;25.87;;;17.73;;
5904;SDS011;2978;42.012;24.880;2023-03-04T00:28:45;34.60;;;19.33;;
5904;SDS011;2978;42.012;24.880;2023-03-04T00:31:10;35.40;;;18.43;;
5904;SDS011;2978;42.012;24.880;2023-03-04T00:33:36;22.80;;;16.57;;
5904;SDS011;2978;42.012;24.880;2023-03-04T00:36:02;21.13;;;15.77;;
5904;SDS011;2978;42.012;24.880;2023-03-04T00:38:28;16.77;;;14.73;;
5904;SDS011;2978;42.012;24.880;2023-03-04T00:40:54;21.37;;;16.20;;
5904;SDS011;2978;42.012;24.880;2023-03-04T00:43:19;23.30;;;16.03;;
5904;SDS011;2978;42.012;24.880;2023-03-04T00:45:45;21.40;;;15.57;;
5904;SDS011;2978;42.012;24.880;2023-03-04T00:48:11;20.27;;;14.10;;
5904;SDS011;2978;42.012;24.880;2023-03-04T00:50:36;17.43;;;14.40;;
5904;SDS011;2978;42.012;24.880;2023-03-04T00:53:02;19.43;;;13.23;;
5904;SDS011;2978;42.012;24.880;2023-03-04T00:55:28;16.70;;;12.93;;
5904;SDS011;2978;42.012;24.880;2023-03-04T00:57:54;16.43;;;13.47;;
5904;SDS011;2978;42.012;24.880;2023-03-04T01:00:19;17.27;;;15.07;;
5904;SDS011;2978;42.012;24.880;2023-03-04T01:02:45;26.53;;;19.63;;
5904;SDS011;2978;42.012;24.880;2023-03-04T01:05:10;22.33;;;17.27;;
5904;SDS011;2978;42.012;24.880;2023-03-04T01:07:36;28.73;;;20.63;;
5904;SDS011;2978;42.012;24.880;2023-03-04T01:10:01;18.43;;;15.93;;
5904;SDS011;2978;42.012;24.880;2023-03-04T01:12:27;32.03;;;16.70;;
5904;SDS011;2978;42.012;24.880;2023-03-04T01:14:53;19.80;;;14.20;;
5904;SDS011;2978;42.012;24.880;2023-03-04T01:17:18;20.57;;;14.00;;
5904;SDS011;2978;42.012;24.880;2023-03-04T01:19:43;20.37;;;14.37;;
5904;SDS011;2978;42.012;24.880;2023-03-04T01:22:09;22.90;;;15.60;;
5904;SDS011;2978;42.012;24.880;2023-03-04T01:24:36;19.30;;;14.23;;
5904;SDS011;2978;42.012;24.880;2023-03-04T01:27:02;22.97;;;15.73;;
5904;SDS011;2978;42.012;24.880;2023-03-04T01:29:27;24.80;;;15.10;;
5904;SDS011;2978;42.012;24.880;2023-03-04T01:31:53;21.03;;;15.53;;
5904;SDS011;2978;42.012;24.880;2023-03-04T01:34:18;26.10;;;15.00;;
5904;SDS011;2978;42.012;24.880;2023-03-04T01:36:44;23.90;;;15.30;;
5904;SDS011;2978;42.012;24.880;2023-03-04T01:39:09;21.33;;;15.37;;
5904;SDS011;2978;42.012;24.880;2023-03-04T01:41:34;25.57;;;16.93;;
5904;SDS011;2978;42.012;24.880;2023-03-04T01:44:00;24.33;;;16.83;;
5904;SDS011;2978;42.012;24.880;2023-03-04T01:46:26;23.70;;;16.70;;
5904;SDS011;2978;42.012;24.880;2023-03-04T01:48:53;27.23;;;17.87;;
5904;SDS011;2978;42.012;24.880;2023-03-04T01:51:19;28.90;;;18.07;;
5904;SDS011;2978;42.012;24.880;2023-03-04T01:53:46;28.03;;;16.67;;
5904;SDS011;2978;42.012;24.880;2023-03-04T01:56:33;28.03;;;17.03;;
5904;SDS011;2978;42.012;24.880;2023-03-04T01:59:10;29.00;;;16.27;;
5904;SDS011;2978;42.012;24.880;2023-03-04T02:01:43;28.07;;;16.23;;
5904;SDS011;2978;42.012;24.880;2023-03-04T02:04:11;32.40;;;16.50;;
5904;SDS011;2978;42.012;24.880;2023-03-04T02:06:38;16.60;;;12.13;;
5904;SDS011;2978;42.012;24.880;2023-03-04T02:09:05;16.03;;;12.07;;
5904;SDS011;2978;42.012;24.880;2023-03-04T02:11:31;12.53;;;10.00;;
5904;SDS011;2978;42.012;24.880;2023-03-04T02:13:58;13.43;;;10.37;;
5904;SDS011;2978;42.012;24.880;2023-03-04T02:16:24;16.47;;;9.40;;
5904;SDS011;2978;42.012;24.880;2023-03-04T02:18:50;13.07;;;9.60;;
5904;SDS011;2978;42.012;24.880;2023-03-04T02:21:18;19.03;;;13.23;;
5904;SDS011;2978;42.012;24.880;2023-03-04T02:26:29;19.03;;;14.30;;
5904;SDS011;2978;42.012;24.880;2023-03-04T02:28:56;20.63;;;15.10;;
5904;SDS011;2978;42.012;24.880;2023-03-04T02:31:36;13.17;;;8.53;;
5904;SDS011;2978;42.012;24.880;2023-03-04T02:34:10;10.63;;;8.17;;
5904;SDS011;2978;42.012;24.880;2023-03-04T02:36:35;11.23;;;7.90;;
5904;SDS011;2978;42.012;24.880;2023-03-04T02:39:07;11.17;;;9.70;;
5904;SDS011;2978;42.012;24.880;2023-03-04T02:41:46;13.20;;;10.30;;
5904;SDS011;2978;42.012;24.880;2023-03-04T02:44:19;16.90;;;12.83;;
5904;SDS011;2978;42.012;24.880;2023-03-04T02:46:50;14.93;;;12.13;;
5904;SDS011;2978;42.012;24.880;2023-03-04T02:49:16;12.50;;;10.83;;
5904;SDS011;2978;42.012;24.880;2023-03-04T02:51:42;12.73;;;7.60;;
5904;SDS011;2978;42.012;24.880;2023-03-04T02:54:18;7.07;;;6.33;;
5904;SDS011;2978;42.012;24.880;2023-03-04T02:56:48;9.33;;;7.60;;
5904;SDS011;2978;42.012;24.880;2023-03-04T02:59:15;8.83;;;7.70;;
5904;SDS011;2978;42.012;24.880;2023-03-04T03:01:42;8.13;;;6.80;;
5904;SDS011;2978;42.012;24.880;2023-03-04T03:04:07;9.50;;;7.43;;
5904;SDS011;2978;42.012;24.880;2023-03-04T03:06:33;9.80;;;8.27;;
5904;SDS011;2978;42.012;24.880;2023-03-04T03:08:58;10.70;;;7.50;;
5904;SDS011;2978;42.012;24.880;2023-03-04T03:11:24;7.43;;;6.50;;
5904;SDS011;2978;42.012;24.880;2023-03-04T03:13:49;8.67;;;6.63;;
5904;SDS011;2978;42.012;24.880;2023-03-04T03:16:15;9.07;;;7.23;;
5904;SDS011;2978;42.012;24.880;2023-03-04T03:18:40;7.80;;;6.40;;
5904;SDS011;2978;42.012;24.880;2023-03-04T03:21:05;9.83;;;7.43;;
5904;SDS011;2978;42.012;24.880;2023-03-04T03:23:31;9.23;;;6.77;;
5904;SDS011;2978;42.012;24.880;2023-03-04T03:25:56;9.70;;;6.40;;
5904;SDS011;2978;42.012;24.880;2023-03-04T03:28:22;9.80;;;7.10;;
5904;SDS011;2978;42.012;24.880;2023-03-04T03:30:47;12.53;;;6.80;;
5904;SDS011;2978;42.012;24.880;2023-03-04T03:33:12;10.23;;;6.60;;
5904;SDS011;2978;42.012;24.880;2023-03-04T03:35:38;6.90;;;6.20;;
5904;SDS011;2978;42.012;24.880;2023-03-04T03:38:03;6.97;;;6.13;;
5904;SDS011;2978;42.012;24.880;2023-03-04T03:40:29;7.90;;;6.43;;
5904;SDS011;2978;42.012;24.880;2023-03-04T03:42:54;6.80;;;5.83;;
5904;SDS011;2978;42.012;24.880;2023-03-04T03:45:20;10.07;;;7.03;;
5904;SDS011;2978;42.012;24.880;2023-03-04T03:47:46;7.73;;;6.20;;
5904;SDS011;2978;42.012;24.880;2023-03-04T03:50:11;8.60;;;6.33;;
5904;SDS011;2978;42.012;24.880;2023-03-04T03:52:37;15.23;;;13.10;;
5904;SDS011;2978;42.012;24.880;2023-03-04T03:55:02;20.17;;;14.23;;
5904;SDS011;2978;42.012;24.880;2023-03-04T03:57:28;22.80;;;14.90;;
5904;SDS011;2978;42.012;24.880;2023-03-04T03:59:54;19.27;;;14.90;;
5904;SDS011;2978;42.012;24.880;2023-03-04T04:02:20;20.03;;;13.30;;
5904;SDS011;2978;42.012;24.880;2023-03-04T04:04:46;21.77;;;16.47;;
5904;SDS011;2978;42.012;24.880;2023-03-04T04:07:12;21.30;;;15.07;;
5904;SDS011;2978;42.012;24.880;2023-03-04T04:09:37;17.90;;;13.90;;
5904;SDS011;2978;42.012;24.880;2023-03-04T04:12:04;17.60;;;13.77;;
5904;SDS011;2978;42.012;24.880;2023-03-04T04:14:30;18.03;;;11.20;;
5904;SDS011;2978;42.012;24.880;2023-03-04T04:16:55;15.17;;;10.33;;
5904;SDS011;2978;42.012;24.880;2023-03-04T04:19:21;15.27;;;11.70;;
5904;SDS011;2978;42.012;24.880;2023-03-04T04:21:46;18.60;;;13.50;;
5904;SDS011;2978;42.012;24.880;2023-03-04T04:24:12;14.57;;;9.83;;
5904;SDS011;2978;42.012;24.880;2023-03-04T04:26:37;14.77;;;8.10;;
5904;SDS011;2978;42.012;24.880;2023-03-04T04:29:03;17.27;;;12.40;;
5904;SDS011;2978;42.012;24.880;2023-03-04T04:31:28;11.97;;;9.97;;
5904;SDS011;2978;42.012;24.880;2023-03-04T04:33:54;16.30;;;8.20;;
5904;SDS011;2978;42.012;24.880;2023-03-04T04:36:19;15.97;;;11.67;;
5904;SDS011;2978;42.012;24.880;2023-03-04T04:38:45;24.23;;;16.47;;
5904;SDS011;2978;42.012;24.880;2023-03-04T04:41:29;27.17;;;20.30;;
5904;SDS011;2978;42.012;24.880;2023-03-04T04:43:58;26.33;;;21.57;;
5904;SDS011;2978;42.012;24.880;2023-03-04T04:46:24;31.27;;;21.00;;
5904;SDS011;2978;42.012;24.880;2023-03-04T04:48:50;28.80;;;20.70;;
5904;SDS011;2978;42.012;24.880;2023-03-04T04:51:15;33.03;;;23.83;;
5904;SDS011;2978;42.012;24.880;2023-03-04T04:53:41;31.50;;;22.67;;
5904;SDS011;2978;42.012;24.880;2023-03-04T04:56:14;42.60;;;25.60;;
5904;SDS011;2978;42.012;24.880;2023-03-04T04:58:42;40.37;;;26.47;;
5904;SDS011;2978;42.012;24.880;2023-03-04T05:01:08;36.80;;;24.77;;
5904;SDS011;2978;42.012;24.880;2023-03-04T05:03:34;36.50;;;24.47;;
5904;SDS011;2978;42.012;24.880;2023-03-04T05:06:01;31.83;;;24.70;;
5904;SDS011;2978;42.012;24.880;2023-03-04T05:08:26;31.73;;;24.33;;
5904;SDS011;2978;42.012;24.880;2023-03-04T05:10:52;38.43;;;27.77;;
5904;SDS011;2978;42.012;24.880;2023-03-04T05:13:17;38.60;;;25.27;;
5904;SDS011;2978;42.012;24.880;2023-03-04T05:15:43;37.30;;;26.80;;
5904;SDS011;2978;42.012;24.880;2023-03-04T05:18:09;52.30;;;27.10;;
5904;SDS011;2978;42.012;24.880;2023-03-04T05:20:35;38.43;;;26.30;;
5904;SDS011;2978;42.012;24.880;2023-03-04T05:23:00;31.50;;;24.00;;
5904;SDS011;2978;42.012;24.880;2023-03-04T05:25:26;30.57;;;24.60;;
5904;SDS011;2978;42.012;24.880;2023-03-04T05:27:51;35.03;;;25.10;;
5904;SDS011;2978;42.012;24.880;2023-03-04T05:30:17;35.10;;;25.97;;
5904;SDS011;2978;42.012;24.880;2023-03-04T05:32:42;40.47;;;29.33;;
5904;SDS011;2978;42.012;24.880;2023-03-04T05:35:08;43.77;;;28.97;;
5904;SDS011;2978;42.012;24.880;2023-03-04T05:37:33;40.87;;;30.10;;
5904;SDS011;2978;42.012;24.880;2023-03-04T05:39:59;55.03;;;32.73;;
5904;SDS011;2978;42.012;24.880;2023-03-04T05:42:24;56.03;;;33.17;;
5904;SDS011;2978;42.012;24.880;2023-03-04T05:44:49;60.10;;;36.07;;
5904;SDS011;2978;42.012;24.880;2023-03-04T05:47:15;59.67;;;38.33;;
5904;SDS011;2978;42.012;24.880;2023-03-04T05:49:40;78.17;;;40.53;;
5904;SDS011;2978;42.012;24.880;2023-03-04T05:52:06;68.40;;;39.23;;
5904;SDS011;2978;42.012;24.880;2023-03-04T05:54:32;66.57;;;40.37;;
5904;SDS011;2978;42.012;24.880;2023-03-04T05:56:57;72.23;;;42.20;;
5904;SDS011;2978;42.012;24.880;2023-03-04T05:59:23;64.70;;;38.27;;
5904;SDS011;2978;42.012;24.880;2023-03-04T06:01:48;79.97;;;46.03;;
5904;SDS011;2978;42.012;24.880;2023-03-04T06:04:14;88.03;;;45.07;;
5904;SDS011;2978;42.012;24.880;2023-03-04T06:06:39;75.67;;;42.30;;
5904;SDS011;2978;42.012;24.880;2023-03-04T06:09:04;88.67;;;43.40;;
5904;SDS011;2978;42.012;24.880;2023-03-04T06:11:30;73.10;;;41.20;;
5904;SDS011;2978;42.012;24.880;2023-03-04T06:13:55;81.97;;;46.23;;
5904;SDS011;2978;42.012;24.880;2023-03-04T06:16:21;86.13;;;48.30;;
5904;SDS011;2978;42.012;24.880;2023-03-04T06:18:46;76.00;;;47.10;;
5904;SDS011;2978;42.012;24.880;2023-03-04T06:21:11;78.60;;;44.90;;
5904;SDS011;2978;42.012;24.880;2023-03-04T06:23:37;85.57;;;46.03;;
5904;SDS011;2978;42.012;24.880;2023-03-04T06:26:03;78.23;;;47.63;;
5904;SDS011;2978;42.012;24.880;2023-03-04T06:28:28;86.50;;;48.77;;
5904;SDS011;2978;42.012;24.880;2023-03-04T06:30:54;89.23;;;52.07;;
5904;SDS011;2978;42.012;24.880;2023-03-04T06:33:21;108.20;;;64.50;;
5904;SDS011;2978;42.012;24.880;2023-03-04T06:35:47;69.60;;;37.73;;
5904;SDS011;2978;42.012;24.880;2023-03-04T06:38:13;48.00;;;30.47;;
5904;SDS011;2978;42.012;24.880;2023-03-04T06:40:38;38.00;;;26.17;;
5904;SDS011;2978;42.012;24.880;2023-03-04T06:43:03;39.70;;;27.57;;
5904;SDS011;2978;42.012;24.880;2023-03-04T06:45:29;38.60;;;25.53;;
5904;SDS011;2978;42.012;24.880;2023-03-04T06:47:54;33.07;;;21.90;;
5904;SDS011;2978;42.012;24.880;2023-03-04T06:50:20;30.20;;;21.60;;
5904;SDS011;2978;42.012;24.880;2023-03-04T06:52:45;47.47;;;25.60;;
5904;SDS011;2978;42.012;24.880;2023-03-04T06:55:11;41.30;;;28.40;;
5904;SDS011;2978;42.012;24.880;2023-03-04T06:57:38;41.40;;;28.87;;
5904;SDS011;2978;42.012;24.880;2023-03-04T07:00:04;38.40;;;26.90;;
